NZCH/CHC METAR and TAF weather

Enter ICAO airport designator
Station Type Date Time Source
NZCH METAR 2019/06/18 04:30 UTC NOAA

NZCH 180430Z AUTO 25006KT 9999 NCD 08/03 Q1024 BECMG 30009KT


Station Type Date Time Source
NZCH Decoded METAR 2019/06/18 04:30 UTC NOAA

Christchurch, New Zealand (NZCH) 43-29S 172-33E 30M
Jun 18, 2019 - 12:30 AM EDT / 2019.06.18 0430 UTC
Wind: from the WSW (250 degrees) at 7 MPH (6 KT):0
Visibility: greater than 7 mile(s):0
Temperature: 46 F (8 C)
Dew Point: 37 F (3 C)
Relative Humidity: 70%
Pressure (altimeter): 30.24 in. Hg (1024 hPa)
ob: NZCH 180430Z AUTO 25006KT 9999 NCD 08/03 Q1024 BECMG 30009KT
cycle: 4

Station Type Date Time Source
NZCH TAF 2019/06/17 18:09 UTC NOAA

TAF NZCH 171705Z 1718/1818 24012KT 9999 FEW030 BKN050
FM180600 30005KT 9999 FEW020 PROB30 1810/1818 0500 FG

Example: see airport list